Time;durP1;ratioP1;P1;durP2;ratioP2;P2;SDS_P1;SDS_P2;PMS_P1;PMS_P2;Temp;Humidity;BMP_temperature;BMP_pressure;BME280_temperature;BME280_humidity;BME280_pressure;Samples;Min_cycle;Max_cycle;Signal;HPM_P1;HPM_P2
2022/09/08 00:01:33;;;;;;;35.45;29.02;;;;;;;17.05;100.00;100111.44;5041434;28;20047;-75
2022/09/08 00:03:58;;;;;;;28.55;25.52;;;;;;;17.01;100.00;100101.84;5039764;28;20102;-75
2022/09/08 00:06:23;;;;;;;33.67;27.52;;;;;;;16.99;100.00;100103.72;5040522;28;20045;-75
2022/09/08 00:08:51;;;;;;;35.38;26.92;;;;;;;16.95;100.00;100085.22;5042891;28;20045;-75
2022/09/08 00:11:23;;;;;;;31.92;25.90;;;;;;;16.90;100.00;100082.75;5041468;28;20044;-75
2022/09/08 00:13:49;;;;;;;24.67;22.23;;;;;;;16.88;100.00;100091.75;5036890;28;20063;-75
2022/09/08 00:16:19;;;;;;;26.42;23.58;;;;;;;16.84;100.00;100088.31;5041434;28;20033;-75
2022/09/08 00:18:44;;;;;;;32.67;29.27;;;;;;;16.82;100.00;100096.38;5043695;28;20114;-75
2022/09/08 00:21:09;;;;;;;34.22;28.75;;;;;;;16.89;100.00;100091.66;5044242;28;20529;-75
2022/09/08 00:23:35;;;;;;;33.40;28.42;;;;;;;16.84;100.00;100083.84;5040114;28;20052;-75
2022/09/08 00:26:01;;;;;;;29.17;26.00;;;;;;;16.81;100.00;100081.31;5033745;28;20037;-75
2022/09/08 00:28:26;;;;;;;38.58;29.08;;;;;;;16.85;100.00;100079.41;5043203;28;20033;-75
2022/09/08 00:30:54;;;;;;;35.40;28.85;;;;;;;16.89;100.00;100075.69;5041215;28;20539;-75
2022/09/08 00:33:21;;;;;;;33.65;28.38;;;;;;;16.86;100.00;100073.13;5043130;28;20041;-75
2022/09/08 00:35:51;;;;;;;33.67;27.83;;;;;;;16.91;100.00;100068.50;5041540;28;20403;-75
2022/09/08 00:38:16;;;;;;;32.40;27.70;;;;;;;16.88;100.00;100062.44;5041377;28;20041;-75
2022/09/08 00:40:47;;;;;;;33.05;29.48;;;;;;;16.88;100.00;100057.09;5044241;28;20463;-75
2022/09/08 00:43:36;;;;;;;30.48;26.45;;;;;;;16.87;100.00;100061.53;5041882;28;20083;-75
2022/09/08 00:46:08;;;;;;;29.92;26.38;;;;;;;16.89;100.00;100069.47;5039364;28;20033;-75
2022/09/08 00:48:38;;;;;;;37.75;31.30;;;;;;;16.83;100.00;100058.13;5040354;28;20033;-75
2022/09/08 00:51:04;;;;;;;31.10;27.65;;;;;;;16.80;100.00;100060.06;5045540;28;20045;-75
2022/09/08 00:53:31;;;;;;;41.60;32.33;;;;;;;16.74;100.00;100057.59;5041162;28;20115;-75
2022/09/08 00:55:56;;;;;;;35.95;30.75;;;;;;;16.69;100.00;100056.91;5041166;28;20111;-75
2022/09/08 00:58:22;;;;;;;38.45;30.42;;;;;;;16.65;100.00;100057.03;5042724;28;20124;-75
2022/09/08 01:00:48;;;;;;;45.53;34.88;;;;;;;16.67;100.00;100062.31;5041107;28;20037;-75
2022/09/08 01:03:15;;;;;;;34.85;28.30;;;;;;;16.71;100.00;100065.69;5034713;28;20498;-75
2022/09/08 01:05:51;;;;;;;32.20;28.73;;;;;;;16.74;100.00;100058.47;5043346;28;20028;-75
2022/09/08 01:14:04;;;;;;;34.17;30.08;;;;;;;16.85;100.00;100052.75;5040136;28;20040;-75
2022/09/08 01:16:40;;;;;;;27.25;24.40;;;;;;;16.85;100.00;100047.44;5043433;28;20064;-75
2022/09/08 01:19:28;;;;;;;36.30;32.33;;;;;;;16.84;100.00;100048.34;5042412;28;20044;-75
2022/09/08 01:22:16;;;;;;;41.13;30.38;;;;;;;16.86;100.00;100041.16;5043081;28;20091;-75
2022/09/08 01:25:14;;;;;;;31.38;26.38;;;;;;;16.77;100.00;100038.84;5040434;28;20038;-75
2022/09/08 01:27:40;;;;;;;25.98;22.83;;;;;;;16.77;100.00;100038.84;5042647;28;20051;-75
2022/09/08 01:30:10;;;;;;;28.70;23.90;;;;;;;16.74;100.00;100033.59;5039946;28;20041;-75
2022/09/08 01:32:38;;;;;;;33.00;27.08;;;;;;;16.74;100.00;100029.16;5042127;28;20102;-75
2022/09/08 01:35:06;;;;;;;30.80;27.35;;;;;;;16.76;100.00;100021.09;5042015;28;20123;-75
2022/09/08 01:37:31;;;;;;;30.80;26.42;;;;;;;16.78;100.00;100019.28;5039593;28;20038;-75
2022/09/08 01:39:57;;;;;;;43.00;34.53;;;;;;;16.78;100.00;100009.47;5041821;28;20033;-75
2022/09/08 01:42:23;;;;;;;29.42;26.40;;;;;;;16.80;100.00;100012.97;5038745;28;20080;-75
2022/09/08 01:44:49;;;;;;;33.78;30.15;;;;;;;16.83;100.00;100011.97;5042041;28;20044;-75
2022/09/08 01:47:14;;;;;;;37.42;29.95;;;;;;;16.82;100.00;100012.88;5041493;28;20045;-75
2022/09/08 01:49:39;;;;;;;42.13;34.97;;;;;;;16.82;100.00;100002.22;5040656;28;20037;-75
2022/09/08 01:52:05;;;;;;;30.15;26.95;;;;;;;16.78;100.00;100008.63;5045665;28;20040;-75
2022/09/08 01:54:30;;;;;;;36.63;27.50;;;;;;;16.78;100.00;100009.47;5039519;28;20029;-75
2022/09/08 01:56:57;;;;;;;41.75;32.42;;;;;;;16.76;100.00;100015.75;5040990;28;20483;-75
2022/09/08 01:59:22;;;;;;;34.08;28.48;;;;;;;16.72;100.00;100022.16;5042038;28;20040;-75
2022/09/08 02:01:48;;;;;;;29.65;26.38;;;;;;;16.68;100.00;100016.06;5032432;28;20097;-75
2022/09/08 02:04:13;;;;;;;44.40;34.55;;;;;;;16.63;100.00;100016.25;5035234;28;20044;-75
2022/09/08 02:06:38;;;;;;;39.70;30.42;;;;;;;16.55;100.00;99997.03;5041996;28;20072;-75
2022/09/08 02:09:04;;;;;;;34.08;26.88;;;;;;;16.54;100.00;99995.31;5039429;28;20045;-75
2022/09/08 02:11:30;;;;;;;30.58;27.15;;;;;;;16.56;100.00;99992.59;5035501;28;20037;-75
2022/09/08 02:13:56;;;;;;;31.80;28.38;;;;;;;16.54;100.00;99999.78;5038252;28;20079;-75
2022/09/08 02:16:21;;;;;;;39.28;33.38;;;;;;;16.55;100.00;99998.84;5038433;28;20025;-75
2022/09/08 02:18:47;;;;;;;48.97;40.83;;;;;;;16.59;100.00;100001.31;5040863;28;20517;-75
2022/09/08 02:21:15;;;;;;;51.80;40.15;;;;;;;16.68;100.00;100007.22;5042301;28;20079;-75
2022/09/08 02:23:43;;;;;;;38.63;34.10;;;;;;;16.69;100.00;100003.59;5042756;28;20399;-75
2022/09/08 02:26:15;;;;;;;40.05;34.55;;;;;;;16.71;100.00;99996.41;5039840;28;20065;-75
2022/09/08 02:28:40;;;;;;;37.83;33.40;;;;;;;16.73;100.00;99990.09;5040703;28;20036;-75
2022/09/08 02:31:06;;;;;;;41.83;36.95;;;;;;;16.76;100.00;99989.13;5042060;28;20437;-75
2022/09/08 02:33:31;;;;;;;48.25;39.05;;;;;;;16.76;100.00;99994.44;5039313;28;20083;-75
2022/09/08 02:35:57;;;;;;;38.13;31.73;;;;;;;16.69;100.00;99991.19;5042436;28;20033;-75
2022/09/08 02:38:24;;;;;;;42.55;36.13;;;;;;;16.68;100.00;99977.91;5039880;28;20049;-75
2022/09/08 02:40:49;;;;;;;39.50;31.98;;;;;;;16.64;100.00;99979.84;5041167;28;20399;-75
2022/09/08 02:43:15;;;;;;;47.03;37.20;;;;;;;16.65;100.00;99974.41;5040986;28;20041;-75
2022/09/08 02:45:41;;;;;;;37.03;32.47;;;;;;;16.63;100.00;99972.75;5039968;28;20034;-75
2022/09/08 02:48:07;;;;;;;38.05;33.63;;;;;;;16.63;100.00;99972.75;5044248;28;20087;-75
2022/09/08 02:50:33;;;;;;;44.67;37.42;;;;;;;16.68;100.00;99968.09;5040481;28;20135;-75
2022/09/08 02:52:58;;;;;;;45.08;38.67;;;;;;;16.68;100.00;99962.78;5045303;28;20086;-75
2022/09/08 02:55:23;;;;;;;50.25;40.63;;;;;;;16.74;100.00;99956.31;5044173;28;20042;-76
2022/09/08 02:57:50;;;;;;;58.55;44.80;;;;;;;16.73;100.00;99957.28;5044374;28;20041;-75
2022/09/08 03:00:17;;;;;;;48.40;41.38;;;;;;;16.78;100.00;99950.00;5045485;28;20376;-76
2022/09/08 03:02:43;;;;;;;39.88;35.55;;;;;;;16.83;100.00;99945.34;5042556;28;20522;-76
2022/09/08 03:05:09;;;;;;;49.00;41.22;;;;;;;16.86;100.00;99948.72;5044653;28;20086;-76
2022/09/08 03:07:35;;;;;;;40.88;34.17;;;;;;;16.85;100.00;99948.81;5043705;28;20496;-75
2022/09/08 03:10:02;;;;;;;37.72;32.75;;;;;;;16.91;100.00;99948.56;5044465;28;20066;-75
2022/09/08 03:12:27;;;;;;;43.10;37.58;;;;;;;16.90;100.00;99943.28;5044785;28;20085;-76
2022/09/08 03:14:54;;;;;;;37.47;33.35;;;;;;;16.91;100.00;99945.88;5042947;28;20495;-75
2022/09/08 03:17:20;;;;;;;35.50;30.48;;;;;;;16.84;100.00;99945.25;5045307;28;20040;-75
2022/09/08 03:19:45;;;;;;;40.92;34.47;;;;;;;16.73;100.00;99942.16;5042519;28;20036;-75
2022/09/08 03:22:11;;;;;;;38.78;32.55;;;;;;;16.75;100.00;99952.75;5046404;28;20414;-76
2022/09/08 03:24:36;;;;;;;40.78;33.80;;;;;;;16.76;100.00;99943.81;5044133;28;20614;-75
2022/09/08 03:27:02;;;;;;;37.40;31.20;;;;;;;16.80;100.00;99943.66;5043360;28;20049;-75
2022/09/08 03:29:31;;;;;;;31.83;28.00;;;;;;;16.82;100.00;99940.91;5045058;28;20052;-75
2022/09/08 03:31:57;;;;;;;46.15;33.83;;;;;;;16.80;100.00;99942.81;5020819;28;20034;-75
2022/09/08 03:34:22;;;;;;;43.47;32.55;;;;;;;16.64;100.00;99938.06;5042923;28;20048;-76
2022/09/08 03:36:48;;;;;;;39.25;29.33;;;;;;;16.63;100.00;99938.97;5036230;28;20026;-76
2022/09/08 03:39:13;;;;;;;35.92;31.90;;;;;;;16.64;100.00;99943.41;5035220;28;20040;-75
2022/09/08 03:41:38;;;;;;;34.45;30.70;;;;;;;16.68;100.00;99937.94;5040540;28;20064;-75
2022/09/08 03:44:04;;;;;;;35.83;30.67;;;;;;;16.69;100.00;99929.00;5041596;28;20037;-75
2022/09/08 03:46:29;;;;;;;36.67;31.70;;;;;;;16.75;100.00;99920.78;5045277;28;20115;-76
2022/09/08 03:48:54;;;;;;;37.92;31.65;;;;;;;16.74;100.00;99898.59;5038009;28;20095;-75
2022/09/08 03:51:24;;;;;;;39.50;32.47;;;;;;;16.77;100.00;99890.50;5044105;28;20029;-75
2022/09/08 03:53:50;;;;;;;39.67;34.33;;;;;;;16.84;100.00;99896.44;5043866;28;20029;-76
2022/09/08 03:56:16;;;;;;;40.72;35.83;;;;;;;16.90;100.00;99892.63;5042080;28;20030;-76
2022/09/08 03:58:43;;;;;;;45.08;37.72;;;;;;;16.99;100.00;99895.78;5038049;28;20041;-76
2022/09/08 04:01:15;;;;;;;49.90;40.83;;;;;;;17.05;100.00;99894.66;5048939;28;20032;-75
2022/09/08 04:03:40;;;;;;;53.22;44.50;;;;;;;17.08;100.00;99889.19;5035258;28;20063;-75
2022/09/08 04:06:06;;;;;;;49.90;41.15;;;;;;;17.11;100.00;99894.41;5040339;28;20037;-75
2022/09/08 04:08:32;;;;;;;42.55;36.55;;;;;;;17.12;100.00;99890.78;5041631;28;20052;-76
2022/09/08 04:10:57;;;;;;;35.90;32.10;;;;;;;17.13;100.00;99891.66;5043950;28;20041;-75
2022/09/08 04:13:23;;;;;;;39.80;31.92;;;;;;;17.09;100.00;99894.47;5037209;28;20079;-76
2022/09/08 04:15:48;;;;;;;30.73;27.25;;;;;;;17.04;100.00;99893.78;5030728;28;20045;-75
2022/09/08 04:18:14;;;;;;;31.48;28.10;;;;;;;17.01;100.00;99906.38;5028371;28;20430;-75
2022/09/08 04:20:39;;;;;;;31.00;26.27;;;;;;;16.90;100.00;99900.63;5037344;28;20064;-75
2022/09/08 04:23:05;;;;;;;31.63;28.27;;;;;;;16.87;100.00;99906.94;5040736;28;20033;-75
2022/09/08 04:25:31;;;;;;;38.65;30.33;;;;;;;16.80;100.00;99905.50;5044531;28;20086;-76
2022/09/08 04:27:57;;;;;;;31.98;27.25;;;;;;;16.80;100.00;99908.16;5041580;28;20029;-76
2022/09/08 04:30:22;;;;;;;36.35;30.63;;;;;;;16.84;100.00;99902.63;5038174;28;20038;-76
2022/09/08 04:32:47;;;;;;;34.78;30.80;;;;;;;16.92;100.00;99906.75;5037966;28;20029;-76
2022/09/08 04:35:13;;;;;;;29.35;26.27;;;;;;;16.95;100.00;99903.97;5043101;28;20561;-76
2022/09/08 04:37:38;;;;;;;31.70;25.73;;;;;;;16.96;100.00;99900.38;5041205;28;20419;-75
2022/09/08 04:40:06;;;;;;;49.50;37.67;;;;;;;16.95;100.00;99901.31;5033659;28;20052;-75
2022/09/08 04:42:33;;;;;;;41.03;36.33;;;;;;;17.02;100.00;99898.31;5040287;28;20040;-75
2022/09/08 04:44:59;;;;;;;48.35;39.65;;;;;;;17.15;100.00;99900.47;5030330;28;20049;-76
2022/09/08 04:47:24;;;;;;;48.45;39.60;;;;;;;17.28;100.00;99901.66;5027192;28;20099;-75
2022/09/08 04:49:50;;;;;;;51.10;39.45;;;;;;;17.42;100.00;99887.69;5028386;28;20021;-75
2022/09/08 04:52:16;;;;;;;46.88;38.38;;;;;;;17.59;100.00;99881.63;5030077;28;20510;-75
2022/09/08 04:54:42;;;;;;;48.92;39.92;;;;;;;17.74;100.00;99883.59;5026013;28;20107;-76
2022/09/08 04:57:08;;;;;;;43.53;37.00;;;;;;;17.86;100.00;99888.38;5038758;28;20037;-75
2022/09/08 04:59:33;;;;;;;48.17;39.33;;;;;;;17.97;100.00;99893.22;5038033;28;20037;-75
2022/09/08 05:01:58;;;;;;;89.60;71.13;;;;;;;18.03;100.00;99889.41;5039613;28;20032;-75
2022/09/08 05:04:24;;;;;;;43.60;37.88;;;;;;;18.03;100.00;99889.41;5041554;28;20102;-75
2022/09/08 05:06:49;;;;;;;41.78;37.30;;;;;;;18.05;100.00;99890.19;5040917;28;20071;-75
2022/09/08 05:09:14;;;;;;;39.88;35.42;;;;;;;18.06;100.00;99881.25;5036874;28;20087;-75
2022/09/08 05:11:40;;;;;;;36.38;32.53;;;;;;;18.03;100.00;99868.06;5042289;28;20029;-76
2022/09/08 05:14:06;;;;;;;41.53;34.60;;;;;;;18.02;100.00;99871.66;5040963;28;20044;-75
2022/09/08 05:16:33;;;;;;;47.05;39.13;;;;;;;18.04;100.00;99875.97;5039887;28;20102;-75
2022/09/08 05:19:01;;;;;;;41.22;33.15;;;;;;;18.08;100.00;99887.41;5042499;28;20037;-75
2022/09/08 05:21:28;;;;;;;40.13;33.67;;;;;;;18.09;100.00;99879.28;5041634;28;20095;-75
2022/09/08 05:23:56;;;;;;;30.13;26.98;;;;;;;18.06;100.00;99875.91;5036600;28;20420;-75
2022/09/08 05:26:23;;;;;;;30.05;26.88;;;;;;;18.01;100.00;99884.13;5039217;28;20034;-75
2022/09/08 05:28:49;;;;;;;36.50;32.60;;;;;;;18.02;100.00;99882.31;5041369;28;20033;-75
2022/09/08 05:31:17;;;;;;;33.80;30.27;;;;;;;18.06;100.00;99871.44;5039572;28;20041;-75
2022/09/08 05:33:42;;;;;;;44.58;36.20;;;;;;;18.09;100.00;99873.97;5037225;28;20520;-75
2022/09/08 05:36:19;;;;;;;44.15;38.58;;;;;;;18.17;100.00;99868.25;5040925;28;20030;-75
2022/09/08 05:38:44;;;;;;;43.63;37.35;;;;;;;18.24;100.00;99874.19;5042719;28;20135;-75
2022/09/08 05:41:11;;;;;;;41.10;36.25;;;;;;;18.28;100.00;99873.94;5039573;28;20069;-75
2022/09/08 05:43:37;;;;;;;51.58;42.47;;;;;;;18.32;100.00;99870.19;5041087;28;20044;-75
2022/09/08 05:46:03;;;;;;;39.03;32.72;;;;;;;18.32;100.00;99864.84;5040404;28;20037;-75
2022/09/08 05:48:30;;;;;;;37.75;32.92;;;;;;;18.28;100.00;99871.25;5040530;28;20051;-75
2022/09/08 05:50:56;;;;;;;42.53;34.47;;;;;;;18.32;100.00;99866.66;5038460;28;20037;-76
2022/09/08 05:53:21;;;;;;;46.25;40.40;;;;;;;18.37;100.00;99868.16;5042371;28;20036;-76
2022/09/08 05:55:56;;;;;;;38.92;33.42;;;;;;;18.37;100.00;99877.97;5039988;28;20478;-76
2022/09/08 05:58:21;;;;;;;39.30;32.40;;;;;;;18.45;100.00;99880.28;5038152;28;20064;-76
2022/09/08 06:00:53;;;;;;;29.13;25.70;;;;;;;18.47;100.00;99897.06;5041201;28;20526;-76
2022/09/08 06:03:19;;;;;;;29.63;26.42;;;;;;;18.34;100.00;99916.41;5041136;28;20032;-76
2022/09/08 06:05:44;;;;;;;30.75;27.58;;;;;;;18.17;100.00;99932.34;5036599;28;20537;-76
2022/09/08 06:08:09;;;;;;;33.42;30.15;;;;;;;18.08;100.00;99954.16;5037632;28;20045;-76
2022/09/08 06:10:37;;;;;;;34.90;30.58;;;;;;;17.90;100.00;99948.72;5040925;28;20087;-76
2022/09/08 06:13:03;;;;;;;35.83;31.98;;;;;;;17.85;100.00;99934.72;5041274;28;20038;-76
2022/09/08 06:15:29;;;;;;;38.03;31.50;;;;;;;17.84;100.00;99943.66;5038631;28;20029;-76
2022/09/08 06:17:54;;;;;;;32.40;28.17;;;;;;;17.85;100.00;99942.72;5039771;28;20060;-76
2022/09/08 06:20:19;;;;;;;32.38;26.77;;;;;;;17.69;100.00;99910.50;5042525;28;20047;-76
2022/09/08 06:22:45;;;;;;;27.95;25.23;;;;;;;17.61;100.00;99903.78;5043985;28;20038;-76
2022/09/08 06:25:10;;;;;;;35.63;28.23;;;;;;;17.64;100.00;99908.97;5045501;28;20033;-76
2022/09/08 06:28:07;;;;;;;27.67;24.20;;;;;;;17.75;100.00;99906.66;5037314;28;20041;-76
2022/09/08 06:30:32;;;;;;;36.65;32.83;;;;;;;17.80;100.00;99898.50;5037576;28;20067;-76
2022/09/08 06:33:02;;;;;;;39.50;35.22;;;;;;;17.95;100.00;99903.13;5041357;28;20056;-76
2022/09/08 06:35:49;;;;;;;36.38;32.22;;;;;;;18.08;100.00;99908.75;5043395;28;20634;-76
2022/09/08 06:38:36;;;;;;;33.63;30.10;;;;;;;18.11;100.00;99914.81;5037530;28;20087;-76
2022/09/08 06:41:28;;;;;;;31.00;27.67;;;;;;;18.20;100.00;99901.97;5041727;28;20180;-76
2022/09/08 06:43:58;;;;;;;30.80;27.80;;;;;;;18.16;100.00;99886.09;5039201;28;20127;-76
2022/09/08 06:46:28;;;;;;;27.20;24.17;;;;;;;18.18;100.00;99888.66;5041106;28;20400;-76
2022/09/08 06:48:54;;;;;;;34.70;27.35;;;;;;;18.20;100.00;99877.91;5046936;28;20443;-76
2022/09/08 06:51:28;;;;;;;35.45;30.77;;;;;;;18.23;100.00;99870.63;5045450;28;20033;-76
2022/09/08 06:54:09;;;;;;;41.20;35.70;;;;;;;18.31;100.00;99860.47;5041602;28;20044;-76
2022/09/08 06:57:04;;;;;;;42.08;37.42;;;;;;;18.39;100.00;99860.94;5038713;28;20044;-76
2022/09/08 07:00:06;;;;;;;46.17;39.25;;;;;;;18.63;100.00;99863.34;5042429;28;20040;-76
2022/09/08 07:02:40;;;;;;;38.83;34.28;;;;;;;18.87;100.00;99866.59;5037613;28;20041;-76
2022/09/08 07:05:28;;;;;;;43.67;38.97;;;;;;;19.07;100.00;99878.06;5058231;28;20045;-76
2022/09/08 07:08:04;;;;;;;34.25;29.85;;;;;;;19.22;100.00;99886.16;5039551;28;20037;-76
2022/09/08 07:11:05;;;;;;;34.80;30.85;;;;;;;19.41;100.00;99895.91;5045034;28;20037;-76
2022/09/08 07:13:40;;;;;;;37.78;33.75;;;;;;;19.59;100.00;99886.03;5023888;28;20492;-76
2022/09/08 07:16:29;;;;;;;33.58;29.85;;;;;;;19.68;100.00;99886.44;5037687;28;20034;-76
2022/09/08 07:19:16;;;;;;;25.55;23.02;;;;;;;19.64;100.00;99878.63;5040360;28;20044;-76
2022/09/08 07:22:03;;;;;;;31.95;27.58;;;;;;;19.51;100.00;99883.78;5043071;28;20124;-76
2022/09/08 07:24:35;;;;;;;27.95;24.98;;;;;;;19.48;100.00;99878.59;5041307;28;20124;-76
2022/09/08 07:27:07;;;;;;;28.95;25.30;;;;;;;19.49;100.00;99878.50;5038992;28;20041;-76
2022/09/08 07:29:38;;;;;;;26.25;22.38;;;;;;;19.43;100.00;99875.28;5040429;28;20098;-76
2022/09/08 07:32:05;;;;;;;31.08;27.98;;;;;;;19.38;100.00;99861.28;5041005;28;20037;-76
2022/09/08 07:34:36;;;;;;;33.90;30.35;;;;;;;19.38;100.00;99856.78;5039608;28;20060;-76
2022/09/08 07:37:47;;;;;;;42.85;35.65;;;;;;;19.36;100.00;99852.47;5040292;28;20547;-76
2022/09/08 07:40:35;;;;;;;36.45;31.50;;;;;;;19.33;100.00;99861.53;5040194;28;20613;-76
2022/09/08 07:43:04;;;;;;;38.83;33.88;;;;;;;19.27;100.00;99860.03;5039751;28;20500;-76
2022/09/08 07:45:39;;;;;;;45.45;36.53;;;;;;;19.30;100.00;99863.50;5039558;28;20037;-76
2022/09/08 07:48:41;;;;;;;37.45;33.67;;;;;;;19.26;100.00;99870.84;5041274;28;20774;-76
2022/09/08 07:51:10;;;;;;;28.48;25.58;;;;;;;19.20;100.00;99873.81;5044411;28;20065;-76
2022/09/08 07:53:53;;;;;;;26.52;23.85;;;;;;;19.26;100.00;99876.19;5042555;28;20044;-76
2022/09/08 07:56:22;;;;;;;29.30;26.30;;;;;;;19.33;100.00;99864.19;5037418;28;20052;-76
2022/09/08 07:59:21;;;;;;;37.03;32.42;;;;;;;19.35;100.00;99888.22;5039106;28;20044;-76
2022/09/08 08:01:49;;;;;;;31.25;28.15;;;;;;;19.24;100.00;99905.69;5043285;28;20037;-76
2022/09/08 08:04:50;;;;;;;29.17;26.20;;;;;;;19.10;100.00;99934.06;5039564;28;20411;-76
2022/09/08 08:07:23;;;;;;;32.10;28.85;;;;;;;18.96;100.00;99951.69;5013045;28;20116;-76
2022/09/08 08:09:55;;;;;;;33.40;28.48;;;;;;;18.85;100.00;99953.19;5036173;28;20045;-76
2022/09/08 08:12:20;;;;;;;42.28;37.60;;;;;;;18.69;100.00;99953.03;5038847;28;20033;-76
2022/09/08 08:14:47;;;;;;;34.90;31.13;;;;;;;18.48;100.00;99933.56;5043426;28;20446;-76
2022/09/08 08:17:12;;;;;;;41.83;35.90;;;;;;;18.18;100.00;99923.38;5043370;28;20500;-76
2022/09/08 08:20:06;;;;;;;44.85;39.45;;;;;;;18.05;100.00;99948.94;5042029;28;20042;-77
2022/09/08 08:22:43;;;;;;;33.75;30.08;;;;;;;17.96;100.00;99919.06;5039767;28;20069;-77
2022/09/08 08:25:36;;;;;;;36.58;31.83;;;;;;;17.69;100.00;99907.81;5042149;28;20043;-77
2022/09/08 08:28:14;;;;;;;45.45;37.45;;;;;;;17.57;100.00;99920.84;5036235;28;20037;-77
2022/09/08 08:31:13;;;;;;;50.40;41.78;;;;;;;17.59;100.00;99937.66;5034983;28;20033;-77
2022/09/08 08:33:43;;;;;;;40.25;33.28;;;;;;;17.68;100.00;99935.44;5041457;28;20029;-77
2022/09/08 08:36:15;;;;;;;50.13;41.13;;;;;;;17.74;100.00;99940.50;5041270;28;20051;-76
2022/09/08 08:38:42;;;;;;;;;;;;;;;17.80;100.00;99950.06;5038711;28;20068;-76
2022/09/08 08:41:19;;;;;;;47.30;42.22;;;;;;;17.83;100.00;99965.94;5041515;28;19962;-77
2022/09/08 08:44:14;;;;;;;54.35;40.92;;;;;;;17.80;100.00;99974.09;5035638;28;20056;-76
2022/09/08 08:47:08;;;;;;;35.10;29.05;;;;;;;17.74;100.00;99963.66;5032250;28;20042;-77
2022/09/08 08:50:03;;;;;;;50.05;39.83;;;;;;;17.69;100.00;99981.69;5048116;28;20037;-76
2022/09/08 08:52:47;;;;;;;38.35;33.40;;;;;;;17.72;100.00;99969.06;5037716;28;20041;-76
2022/09/08 08:55:50;;;;;;;38.28;29.80;;;;;;;17.69;100.00;99969.19;5035891;28;20120;-76
2022/09/08 08:58:34;;;;;;;29.25;24.02;;;;;;;17.69;100.00;99955.84;5042792;28;20126;-76
2022/09/08 09:01:19;;;;;;;33.78;26.85;;;;;;;17.72;100.00;99950.38;5041285;28;20555;-76
2022/09/08 09:04:05;;;;;;;33.05;26.15;;;;;;;17.82;100.00;99940.19;5040107;28;20056;-75
2022/09/08 09:06:54;;;;;;;30.45;26.88;;;;;;;17.86;100.00;99930.22;5039185;28;20407;-75
2022/09/08 09:09:50;;;;;;;28.48;23.58;;;;;;;17.95;100.00;99930.69;5038921;28;20043;-75
2022/09/08 09:12:48;;;;;;;31.13;25.77;;;;;;;18.03;100.00;99916.13;5039396;28;20053;-75
2022/09/08 09:16:01;;;;;;;27.77;23.67;;;;;;;18.15;100.00;99916.38;5042569;28;20083;-75
2022/09/08 09:18:48;;;;;;;33.67;24.83;;;;;;;18.28;100.00;99911.31;5015967;28;20084;-75
2022/09/08 09:21:15;;;;;;;30.45;24.73;;;;;;;18.41;100.00;99908.94;5041547;28;20100;-74
2022/09/08 09:24:04;;;;;;;34.58;28.23;;;;;;;18.58;100.00;99910.81;5043347;28;20033;-75
2022/09/08 09:26:33;;;;;;;32.90;28.88;;;;;;;18.67;100.00;99910.34;5042498;28;20037;-75
2022/09/08 09:29:13;;;;;;;32.03;26.40;;;;;;;18.74;100.00;99894.88;5035091;28;20051;-75
2022/09/08 09:32:08;;;;;;;26.58;23.85;;;;;;;18.82;100.00;99896.25;5036681;28;20032;-75
2022/09/08 09:35:12;;;;;;;28.95;22.42;;;;;;;19.06;100.00;99898.63;5032831;28;20052;-75
2022/09/08 09:38:04;;;;;;;22.42;20.23;;;;;;;19.17;100.00;99885.53;5034218;28;20033;-75
2022/09/08 09:41:00;;;;;;;24.40;21.40;;;;;;;19.37;100.00;99892.53;5024721;28;20045;-75
2022/09/08 09:43:37;;;;;;;25.70;21.80;;;;;;;19.47;100.00;99885.75;5025328;28;20034;-75
2022/09/08 09:46:36;;;;;;;21.88;19.67;;;;;;;19.53;100.00;99889.91;5029128;28;20040;-75
2022/09/08 09:49:22;;;;;;;26.85;23.75;;;;;;;19.59;100.00;99884.22;5031681;28;20487;-75
2022/09/08 09:52:06;;;;;;;30.05;24.60;;;;;;;19.74;100.00;99889.75;5041602;28;20033;-75
2022/09/08 09:54:45;;;;;;;24.17;21.55;;;;;;;19.90;100.00;99880.78;5038874;28;20385;-75
2022/09/08 09:57:39;;;;;;;20.17;18.30;;;;;;;19.99;100.00;99884.78;5035066;28;20082;-77
2022/09/08 10:00:14;;;;;;;20.08;18.02;;;;;;;20.11;100.00;99884.06;5037351;28;20080;-75
2022/09/08 10:02:59;;;;;;;29.30;26.15;;;;;;;20.31;100.00;99884.78;5039960;28;20086;-75
2022/09/08 10:05:52;;;;;;;32.65;28.60;;;;;;;20.44;100.00;99885.81;5039949;28;20068;-74
2022/09/08 10:08:48;;;;;;;28.10;25.08;;;;;;;20.59;100.00;99881.41;5024386;28;20502;-76
2022/09/08 10:11:35;;;;;;;23.17;20.88;;;;;;;20.54;100.00;99881.69;5030670;28;20116;-75
2022/09/08 10:14:25;;;;;;;21.00;17.45;;;;;;;20.52;100.00;99878.19;5030875;28;20068;-75
2022/09/08 10:17:05;;;;;;;21.98;19.75;;;;;;;20.61;100.00;99878.63;5030805;28;20473;-75
2022/09/08 10:20:08;;;;;;;23.02;20.58;;;;;;;20.62;100.00;99883.94;5031708;28;20732;-75
2022/09/08 10:23:01;;;;;;;18.38;16.50;;;;;;;20.71;100.00;99879.84;5028885;28;20047;-75
2022/09/08 10:26:10;;;;;;;20.13;18.15;;;;;;;20.77;100.00;99874.09;5027794;28;20040;-75
2022/09/08 10:28:50;;;;;;;24.83;22.35;;;;;;;20.86;100.00;99876.25;5003109;28;20041;-75
2022/09/08 10:31:39;;;;;;;29.13;24.25;;;;;;;20.98;100.00;99886.25;5025919;28;20054;-75
2022/09/08 10:34:53;;;;;;;20.42;18.23;;;;;;;21.07;100.00;99884.00;5028315;28;20037;-76
2022/09/08 10:37:24;;;;;;;18.38;16.60;;;;;;;21.13;100.00;99880.94;5024468;28;20049;-76
2022/09/08 10:40:25;;;;;;;21.93;19.73;;;;;;;21.12;100.00;99885.44;5027140;28;20396;-76
2022/09/08 10:42:53;;;;;;;20.80;18.67;;;;;;;21.06;100.00;99879.56;5027741;28;20780;-75
2022/09/08 10:45:56;;;;;;;14.80;13.30;;;;;;;20.89;100.00;99881.44;5029117;28;20040;-75
2022/09/08 10:48:47;;;;;;;41.10;28.88;;;;;;;20.79;99.76;99885.59;5030965;28;20124;-75
2022/09/08 10:51:48;;;;;;;16.02;14.40;;;;;;;20.67;100.00;99886.31;5029197;28;20033;-75
2022/09/08 10:54:49;;;;;;;14.18;12.68;;;;;;;20.55;100.00;99887.91;5025702;28;20033;-75
2022/09/08 10:57:26;;;;;;;13.15;11.80;;;;;;;20.34;100.00;99889.97;5021739;28;20044;-76
2022/09/08 10:59:57;;;;;;;9.93;9.13;;;;;;;20.26;100.00;99890.41;5037400;28;20079;-75
2022/09/08 11:02:50;;;;;;;10.07;9.15;;;;;;;20.16;100.00;99885.66;5039559;28;20029;-75
2022/09/08 11:05:53;;;;;;;8.77;7.50;;;;;;;20.04;100.00;99885.38;5037745;28;20545;-75
2022/09/08 11:08:56;;;;;;;10.02;8.20;;;;;;;20.00;100.00;99888.31;5022385;28;20129;-75
2022/09/08 11:11:32;;;;;;;7.88;7.07;;;;;;;20.03;100.00;99886.31;5044257;28;20033;-75
2022/09/08 11:14:01;;;;;;;8.25;7.38;;;;;;;20.07;100.00;99885.22;5041051;28;20385;-75
2022/09/08 11:16:51;;;;;;;10.35;8.30;;;;;;;20.20;100.00;99882.72;5034129;28;20025;-75
2022/09/08 11:19:48;;;;;;;17.83;8.85;;;;;;;20.19;100.00;99882.78;5043061;28;20772;-75
2022/09/08 11:22:28;;;;;;;7.97;7.13;;;;;;;20.13;100.00;99884.00;5025092;28;20038;-75
2022/09/08 11:25:18;;;;;;;10.23;7.03;;;;;;;20.07;100.00;99885.22;5044465;28;20033;-75
2022/09/08 11:28:04;;;;;;;7.75;6.97;;;;;;;19.99;100.00;99892.81;5028340;28;20029;-76
2022/09/08 11:30:40;;;;;;;7.88;6.70;;;;;;;19.84;100.00;99886.47;5043009;28;20043;-76
2022/09/08 11:33:37;;;;;;;7.63;6.55;;;;;;;19.75;100.00;99896.81;5045444;28;20108;-76
2022/09/08 11:36:40;;;;;;;6.35;5.60;;;;;;;19.62;100.00;99892.09;5034449;28;20034;-76
2022/09/08 11:39:22;;;;;;;6.72;4.95;;;;;;;19.55;100.00;99890.69;5028347;28;20036;-76
2022/09/08 11:42:00;;;;;;;7.55;6.10;;;;;;;19.34;100.00;99891.84;5039628;28;20036;-76
2022/09/08 11:44:46;;;;;;;8.77;6.40;;;;;;;19.23;100.00;99901.28;5041925;28;20763;-76
2022/09/08 11:47:26;;;;;;;7.88;5.95;;;;;;;19.21;100.00;99905.84;5043188;28;20128;-76
2022/09/08 11:50:19;;;;;;;10.90;7.40;;;;;;;18.99;100.00;99898.06;5042202;28;20156;-76